Terminal Aerodrome Forecast
Issued by NWS

Home | Current Version | Previous Version | Graphics & Text | Print | Product List | Glossary On
Versions: 1 2 3 4 5 6 7 8 9 10 11 12 13 14 15
000
FTUS43 KUNR 251000 AAA
TAFGCC
TAF AMD
KGCC 251027Z 2510/2606 01013KT P6SM OVC009
     FM251200 36018KT 3/4SM -SN BR VV006
     FM260100 02010KT P6SM OVC008=

USA.gov is the U.S. government's official web portal to all federal, state and local government web resources and services.